sensor_id;sensor_type;location;lat;lon;timestamp;pressure;altitude;pressure_sealevel;temperature;humidity
4836;BME280;66719;51.226;6.902;2023-05-16T00:00:47;100808.47;;;11.34;100.00
4836;BME280;66719;51.226;6.902;2023-05-16T00:03:14;100808.47;;;11.34;100.00
4836;BME280;66719;51.226;6.902;2023-05-16T00:05:40;100812.00;;;11.31;100.00
4836;BME280;66719;51.226;6.902;2023-05-16T00:08:07;100826.88;;;11.31;100.00
4836;BME280;66719;51.226;6.902;2023-05-16T00:10:33;100836.75;;;11.17;100.00
4836;BME280;66719;51.226;6.902;2023-05-16T00:13:00;100834.16;;;11.15;100.00
4836;BME280;66719;51.226;6.902;2023-05-16T00:15:27;100833.41;;;11.09;100.00
4836;BME280;66719;51.226;6.902;2023-05-16T00:17:55;100825.59;;;11.07;100.00
4836;BME280;66719;51.226;6.902;2023-05-16T00:20:26;100832.56;;;11.08;100.00
4836;BME280;66719;51.226;6.902;2023-05-16T00:22:54;100839.66;;;11.01;100.00
4836;BME280;66719;51.226;6.902;2023-05-16T00:25:20;100840.63;;;10.97;100.00
4836;BME280;66719;51.226;6.902;2023-05-16T00:27:47;100842.44;;;10.92;100.00
4836;BME280;66719;51.226;6.902;2023-05-16T00:30:13;100849.59;;;10.83;100.00
4836;BME280;66719;51.226;6.902;2023-05-16T00:32:40;100841.00;;;10.78;100.00
4836;BME280;66719;51.226;6.902;2023-05-16T00:35:06;100851.44;;;10.79;100.00
4836;BME280;66719;51.226;6.902;2023-05-16T00:37:36;100842.72;;;10.79;100.00
4836;BME280;66719;51.226;6.902;2023-05-16T00:40:04;100853.19;;;10.77;100.00
4836;BME280;66719;51.226;6.902;2023-05-16T00:42:30;100845.19;;;10.86;100.00
4836;BME280;66719;51.226;6.902;2023-05-16T00:44:57;100848.84;;;10.76;100.00
4836;BME280;66719;51.226;6.902;2023-05-16T00:47:24;100849.56;;;10.84;100.00
4836;BME280;66719;51.226;6.902;2023-05-16T00:49:50;100858.22;;;10.89;100.00
4836;BME280;66719;51.226;6.902;2023-05-16T00:52:17;100854.09;;;10.76;100.00
4836;BME280;66719;51.226;6.902;2023-05-16T00:54:44;100856.66;;;10.79;100.00
4836;BME280;66719;51.226;6.902;2023-05-16T00:57:10;100849.97;;;10.63;100.00
4836;BME280;66719;51.226;6.902;2023-05-16T00:59:37;100849.03;;;10.65;100.00
4836;BME280;66719;51.226;6.902;2023-05-16T01:02:03;100858.88;;;10.50;100.00
4836;BME280;66719;51.226;6.902;2023-05-16T01:04:31;100862.53;;;10.39;100.00
4836;BME280;66719;51.226;6.902;2023-05-16T01:06:57;100864.38;;;10.36;100.00
4836;BME280;66719;51.226;6.902;2023-05-16T01:09:24;100866.09;;;10.37;100.00
4836;BME280;66719;51.226;6.902;2023-05-16T01:11:59;100862.78;;;10.24;100.00
4836;BME280;66719;51.226;6.902;2023-05-16T01:17:17;100860.25;;;10.18;100.00
4836;BME280;66719;51.226;6.902;2023-05-16T01:25:10;100876.81;;;10.17;100.00
4836;BME280;66719;51.226;6.902;2023-05-16T01:27:44;100881.28;;;10.10;100.00
4836;BME280;66719;51.226;6.902;2023-05-16T01:30:16;100880.31;;;10.16;100.00
4836;BME280;66719;51.226;6.902;2023-05-16T01:32:43;100880.34;;;10.13;100.00
4836;BME280;66719;51.226;6.902;2023-05-16T01:35:12;100884.78;;;10.09;100.00
4836;BME280;66719;51.226;6.902;2023-05-16T01:42:59;100886.63;;;10.01;100.00
4836;BME280;66719;51.226;6.902;2023-05-16T01:45:31;100905.84;;;9.97;100.00
4836;BME280;66719;51.226;6.902;2023-05-16T01:48:06;100893.75;;;9.91;100.00
4836;BME280;66719;51.226;6.902;2023-05-16T01:50:38;100904.22;;;9.88;100.00
4836;BME280;66719;51.226;6.902;2023-05-16T01:53:14;100933.88;;;9.87;100.00
4836;BME280;66719;51.226;6.902;2023-05-16T01:55:46;100907.88;;;9.77;100.00
4836;BME280;66719;51.226;6.902;2023-05-16T01:58:14;100916.56;;;9.79;100.00
4836;BME280;66719;51.226;6.902;2023-05-16T02:00:42;100927.13;;;9.70;100.00
4836;BME280;66719;51.226;6.902;2023-05-16T02:03:10;100926.22;;;9.72;100.00
4836;BME280;66719;51.226;6.902;2023-05-16T02:05:36;100927.16;;;9.68;100.00
4836;BME280;66719;51.226;6.902;2023-05-16T02:08:03;100923.69;;;9.66;100.00
4836;BME280;66719;51.226;6.902;2023-05-16T02:10:30;100932.47;;;9.59;100.00
4836;BME280;66719;51.226;6.902;2023-05-16T02:12:57;100924.56;;;9.65;100.00
4836;BME280;66719;51.226;6.902;2023-05-16T02:15:23;100922.00;;;9.60;100.00
4836;BME280;66719;51.226;6.902;2023-05-16T02:17:50;100929.00;;;9.58;100.00
4836;BME280;66719;51.226;6.902;2023-05-16T02:20:17;100935.19;;;9.50;100.00
4836;BME280;66719;51.226;6.902;2023-05-16T02:22:43;100936.94;;;9.51;100.00
4836;BME280;66719;51.226;6.902;2023-05-16T02:25:13;100936.88;;;9.57;100.00
4836;BME280;66719;51.226;6.902;2023-05-16T02:27:41;100941.22;;;9.56;100.00
4836;BME280;66719;51.226;6.902;2023-05-16T02:30:11;100945.50;;;9.62;100.00
4836;BME280;66719;51.226;6.902;2023-05-16T02:32:38;100953.41;;;9.59;100.00
4836;BME280;66719;51.226;6.902;2023-05-16T02:35:06;100950.03;;;9.48;100.00
4836;BME280;66719;51.226;6.902;2023-05-16T02:37:33;100945.59;;;9.54;100.00
4836;BME280;66719;51.226;6.902;2023-05-16T02:39:59;100956.00;;;9.59;100.00
4836;BME280;66719;51.226;6.902;2023-05-16T02:42:26;100973.50;;;9.51;100.00
4836;BME280;66719;51.226;6.902;2023-05-16T02:44:53;100961.44;;;9.41;100.00
4836;BME280;66719;51.226;6.902;2023-05-16T02:47:19;100964.03;;;9.42;100.00
4836;BME280;66719;51.226;6.902;2023-05-16T02:49:46;100965.78;;;9.42;100.00
4836;BME280;66719;51.226;6.902;2023-05-16T02:52:12;100971.09;;;9.32;100.00
4836;BME280;66719;51.226;6.902;2023-05-16T02:54:39;100977.13;;;9.36;100.00
4836;BME280;66719;51.226;6.902;2023-05-16T02:57:05;100977.13;;;9.39;100.00
4836;BME280;66719;51.226;6.902;2023-05-16T02:59:32;100987.59;;;9.36;100.00
4836;BME280;66719;51.226;6.902;2023-05-16T03:01:58;100992.78;;;9.38;100.00
4836;BME280;66719;51.226;6.902;2023-05-16T03:04:25;100990.19;;;9.36;100.00
4836;BME280;66719;51.226;6.902;2023-05-16T03:06:52;100989.31;;;9.37;100.00
4836;BME280;66719;51.226;6.902;2023-05-16T03:09:18;101002.47;;;9.28;100.00
4836;BME280;66719;51.226;6.902;2023-05-16T03:11:45;100989.38;;;9.29;100.00
4836;BME280;66719;51.226;6.902;2023-05-16T03:14:11;100992.00;;;9.29;100.00
4836;BME280;66719;51.226;6.902;2023-05-16T03:16:38;101005.09;;;9.26;100.00
4836;BME280;66719;51.226;6.902;2023-05-16T03:19:06;100993.75;;;9.32;100.00
4836;BME280;66719;51.226;6.902;2023-05-16T03:21:33;101004.28;;;9.23;100.00
4836;BME280;66719;51.226;6.902;2023-05-16T03:24:01;101002.53;;;9.19;100.00
4836;BME280;66719;51.226;6.902;2023-05-16T03:26:29;100990.25;;;9.31;100.00
4836;BME280;66719;51.226;6.902;2023-05-16T03:28:55;100999.91;;;9.23;100.00
4836;BME280;66719;51.226;6.902;2023-05-16T03:31:22;100999.06;;;9.21;100.00
4836;BME280;66719;51.226;6.902;2023-05-16T03:33:48;101012.16;;;9.17;100.00
4836;BME280;66719;51.226;6.902;2023-05-16T03:36:15;101004.38;;;9.12;100.00
4836;BME280;66719;51.226;6.902;2023-05-16T03:38:41;101008.72;;;9.13;100.00
4836;BME280;66719;51.226;6.902;2023-05-16T03:41:07;101004.31;;;9.17;100.00
4836;BME280;66719;51.226;6.902;2023-05-16T03:43:34;101011.25;;;9.19;100.00
4836;BME280;66719;51.226;6.902;2023-05-16T03:46:00;101009.59;;;9.07;100.00
4836;BME280;66719;51.226;6.902;2023-05-16T03:48:27;101021.84;;;9.04;100.00
4836;BME280;66719;51.226;6.902;2023-05-16T03:50:54;101023.56;;;9.06;100.00
4836;BME280;66719;51.226;6.902;2023-05-16T03:53:21;101027.06;;;9.04;100.00
4836;BME280;66719;51.226;6.902;2023-05-16T03:55:47;101029.63;;;9.07;100.00
4836;BME280;66719;51.226;6.902;2023-05-16T03:58:14;101035.72;;;9.07;100.00
4836;BME280;66719;51.226;6.902;2023-05-16T04:00:41;101041.03;;;8.97;100.00
4836;BME280;66719;51.226;6.902;2023-05-16T04:03:08;101041.06;;;8.92;100.00
4836;BME280;66719;51.226;6.902;2023-05-16T04:05:35;101048.88;;;8.95;100.00
4836;BME280;66719;51.226;6.902;2023-05-16T04:08:01;101061.19;;;8.73;100.00
4836;BME280;66719;51.226;6.902;2023-05-16T04:10:28;101055.06;;;8.79;100.00
4836;BME280;66719;51.226;6.902;2023-05-16T04:12:54;101049.81;;;8.84;100.00
4836;BME280;66719;51.226;6.902;2023-05-16T04:15:21;101062.94;;;8.73;100.00
4836;BME280;66719;51.226;6.902;2023-05-16T04:17:47;101067.34;;;8.62;100.00
4836;BME280;66719;51.226;6.902;2023-05-16T04:20:14;101060.38;;;8.65;100.00
4836;BME280;66719;51.226;6.902;2023-05-16T04:22:41;101076.03;;;8.62;100.00
4836;BME280;66719;51.226;6.902;2023-05-16T04:25:08;101080.41;;;8.60;100.00
4836;BME280;66719;51.226;6.902;2023-05-16T04:27:34;101071.66;;;8.70;100.00
4836;BME280;66719;51.226;6.902;2023-05-16T04:30:01;101078.63;;;8.70;100.00
4836;BME280;66719;51.226;6.902;2023-05-16T04:32:27;101082.03;;;8.76;100.00
4836;BME280;66719;51.226;6.902;2023-05-16T04:34:54;101084.75;;;8.63;100.00
4836;BME280;66719;51.226;6.902;2023-05-16T04:37:21;101088.25;;;8.56;100.00
4836;BME280;66719;51.226;6.902;2023-05-16T04:39:47;101093.50;;;8.53;100.00
4836;BME280;66719;51.226;6.902;2023-05-16T04:42:14;101100.47;;;8.52;100.00
4836;BME280;66719;51.226;6.902;2023-05-16T04:44:41;101096.97;;;8.52;100.00
4836;BME280;66719;51.226;6.902;2023-05-16T04:47:09;101102.22;;;8.42;100.00
4836;BME280;66719;51.226;6.902;2023-05-16T04:49:36;101109.19;;;8.43;100.00
4836;BME280;66719;51.226;6.902;2023-05-16T04:52:03;101109.19;;;8.45;100.00
4836;BME280;66719;51.226;6.902;2023-05-16T04:54:29;101110.06;;;8.44;100.00
4836;BME280;66719;51.226;6.902;2023-05-16T04:56:56;101108.28;;;8.49;100.00
4836;BME280;66719;51.226;6.902;2023-05-16T04:59:22;101114.34;;;8.54;100.00
4836;BME280;66719;51.226;6.902;2023-05-16T05:01:49;101108.25;;;8.57;100.00
4836;BME280;66719;51.226;6.902;2023-05-16T05:04:16;101122.19;;;8.48;100.00
4836;BME280;66719;51.226;6.902;2023-05-16T05:06:43;101117.88;;;8.38;100.00
4836;BME280;66719;51.226;6.902;2023-05-16T05:09:09;101125.69;;;8.41;100.00
4836;BME280;66719;51.226;6.902;2023-05-16T05:11:36;101125.72;;;8.36;100.00
4836;BME280;66719;51.226;6.902;2023-05-16T05:14:03;101127.44;;;8.33;100.00
4836;BME280;66719;51.226;6.902;2023-05-16T05:16:29;101138.75;;;8.39;100.00
4836;BME280;66719;51.226;6.902;2023-05-16T05:18:56;101130.03;;;8.48;100.00
4836;BME280;66719;51.226;6.902;2023-05-16T05:21:22;101143.94;;;8.55;100.00
4836;BME280;66719;51.226;6.902;2023-05-16T05:23:50;101145.66;;;8.62;100.00
4836;BME280;66719;51.226;6.902;2023-05-16T05:26:17;101144.78;;;8.57;100.00
4836;BME280;66719;51.226;6.902;2023-05-16T05:28:43;101142.19;;;8.54;100.00
4836;BME280;66719;51.226;6.902;2023-05-16T05:31:26;101151.75;;;8.62;100.00
4836;BME280;66719;51.226;6.902;2023-05-16T05:33:53;101155.22;;;8.61;100.00
4836;BME280;66719;51.226;6.902;2023-05-16T05:36:20;101159.56;;;8.61;100.00
4836;BME280;66719;51.226;6.902;2023-05-16T05:38:46;101159.56;;;8.64;100.00
4836;BME280;66719;51.226;6.902;2023-05-16T05:41:13;101159.56;;;8.62;100.00
4836;BME280;66719;51.226;6.902;2023-05-16T05:43:42;101163.91;;;8.63;100.00
4836;BME280;66719;51.226;6.902;2023-05-16T05:46:08;101173.44;;;8.67;100.00
4836;BME280;66719;51.226;6.902;2023-05-16T05:48:35;101169.09;;;8.68;100.00
4836;BME280;66719;51.226;6.902;2023-05-16T05:51:01;101168.22;;;8.72;100.00
4836;BME280;66719;51.226;6.902;2023-05-16T05:53:28;101176.03;;;8.73;100.00
4836;BME280;66719;51.226;6.902;2023-05-16T05:55:54;101175.16;;;8.74;100.00
4836;BME280;66719;51.226;6.902;2023-05-16T05:58:21;101181.22;;;8.83;100.00
4836;BME280;66719;51.226;6.902;2023-05-16T06:00:48;101182.13;;;8.74;100.00
4836;BME280;66719;51.226;6.902;2023-05-16T06:03:14;101182.13;;;8.80;100.00
4836;BME280;66719;51.226;6.902;2023-05-16T06:05:42;101177.75;;;8.84;100.00
4836;BME280;66719;51.226;6.902;2023-05-16T06:08:08;101191.69;;;8.83;100.00
4836;BME280;66719;51.226;6.902;2023-05-16T06:10:35;101193.41;;;8.90;100.00
4836;BME280;66719;51.226;6.902;2023-05-16T06:13:01;101191.66;;;8.89;100.00
4836;BME280;66719;51.226;6.902;2023-05-16T06:15:28;101197.75;;;8.85;100.00
4836;BME280;66719;51.226;6.902;2023-05-16T06:17:55;101201.25;;;8.84;100.00
4836;BME280;66719;51.226;6.902;2023-05-16T06:20:21;101207.31;;;8.86;100.00
4836;BME280;66719;51.226;6.902;2023-05-16T06:22:48;101198.63;;;8.90;100.00
4836;BME280;66719;51.226;6.902;2023-05-16T06:25:14;101209.03;;;8.96;100.00
4836;BME280;66719;51.226;6.902;2023-05-16T06:27:41;101207.25;;;9.01;100.00
4836;BME280;66719;51.226;6.902;2023-05-16T06:30:08;101209.00;;;9.02;100.00
4836;BME280;66719;51.226;6.902;2023-05-16T06:32:34;101231.66;;;9.04;100.00
4836;BME280;66719;51.226;6.902;2023-05-16T06:35:01;101212.47;;;9.07;100.00
4836;BME280;66719;51.226;6.902;2023-05-16T06:37:28;101222.03;;;9.10;100.00
4836;BME280;66719;51.226;6.902;2023-05-16T06:39:54;101211.53;;;9.17;100.00
4836;BME280;66719;51.226;6.902;2023-05-16T06:42:21;101221.91;;;9.34;100.00
4836;BME280;66719;51.226;6.902;2023-05-16T06:44:48;101220.19;;;9.31;100.00
4836;BME280;66719;51.226;6.902;2023-05-16T06:47:14;101229.75;;;9.35;100.00
4836;BME280;66719;51.226;6.902;2023-05-16T06:49:41;101226.31;;;9.30;100.00
4836;BME280;66719;51.226;6.902;2023-05-16T06:52:07;101223.69;;;9.26;100.00
4836;BME280;66719;51.226;6.902;2023-05-16T06:54:37;101221.13;;;9.21;100.00
4836;BME280;66719;51.226;6.902;2023-05-16T06:57:04;101215.84;;;9.32;100.00
4836;BME280;66719;51.226;6.902;2023-05-16T06:59:30;101225.41;;;9.34;100.00
4836;BME280;66719;51.226;6.902;2023-05-16T07:01:57;101218.38;;;9.43;100.00
4836;BME280;66719;51.226;6.902;2023-05-16T07:04:24;101223.53;;;9.53;100.00
4836;BME280;66719;51.226;6.902;2023-05-16T07:06:50;101226.97;;;9.61;100.00
4836;BME280;66719;51.226;6.902;2023-05-16T07:09:17;101222.59;;;9.62;100.00
4836;BME280;66719;51.226;6.902;2023-05-16T07:11:44;101227.81;;;9.67;100.00
4836;BME280;66719;51.226;6.902;2023-05-16T07:14:11;101226.09;;;9.61;100.00
4836;BME280;66719;51.226;6.902;2023-05-16T07:16:37;101237.53;;;9.49;100.00
4836;BME280;66719;51.226;6.902;2023-05-16T07:19:04;101261.06;;;9.42;100.00
4836;BME280;66719;51.226;6.902;2023-05-16T07:21:31;101234.06;;;9.41;100.00
4836;BME280;66719;51.226;6.902;2023-05-16T07:23:57;101241.03;;;9.38;100.00
4836;BME280;66719;51.226;6.902;2023-05-16T07:26:24;101236.69;;;9.37;100.00
4836;BME280;66719;51.226;6.902;2023-05-16T07:28:51;101244.56;;;9.35;100.00
4836;BME280;66719;51.226;6.902;2023-05-16T07:31:17;101244.53;;;9.37;100.00
4836;BME280;66719;51.226;6.902;2023-05-16T07:33:44;101242.81;;;9.40;100.00
4836;BME280;66719;51.226;6.902;2023-05-16T07:36:12;101248.88;;;9.44;100.00
4836;BME280;66719;51.226;6.902;2023-05-16T07:38:42;101252.34;;;9.46;100.00
4836;BME280;66719;51.226;6.902;2023-05-16T07:41:09;101241.84;;;9.52;100.00
4836;BME280;66719;51.226;6.902;2023-05-16T07:43:35;101240.06;;;9.60;100.00
4836;BME280;66719;51.226;6.902;2023-05-16T07:46:02;101243.50;;;9.68;100.00
4836;BME280;66719;51.226;6.902;2023-05-16T07:48:29;101246.91;;;9.79;100.00
4836;BME280;66719;51.226;6.902;2023-05-16T07:50:56;101248.53;;;9.96;100.00
4836;BME280;66719;51.226;6.902;2023-05-16T07:53:23;101267.66;;;10.04;100.00
4836;BME280;66719;51.226;6.902;2023-05-16T07:55:49;101241.38;;;10.16;100.00
4836;BME280;66719;51.226;6.902;2023-05-16T07:58:16;101247.44;;;10.27;100.00
4836;BME280;66719;51.226;6.902;2023-05-16T08:00:43;101238.66;;;10.34;100.00
4836;BME280;66719;51.226;6.902;2023-05-16T08:03:09;101238.59;;;10.39;100.00
4836;BME280;66719;51.226;6.902;2023-05-16T08:05:36;101231.56;;;10.45;100.00
4836;BME280;66719;51.226;6.902;2023-05-16T08:08:03;101236.75;;;10.52;100.00
4836;BME280;66719;51.226;6.902;2023-05-16T08:10:29;101234.09;;;10.55;100.00
4836;BME280;66719;51.226;6.902;2023-05-16T08:12:56;101240.97;;;10.65;100.00
4836;BME280;66719;51.226;6.902;2023-05-16T08:15:24;101253.25;;;10.57;100.00
4836;BME280;66719;51.226;6.902;2023-05-16T08:17:51;101248.06;;;10.55;100.00
4836;BME280;66719;51.226;6.902;2023-05-16T08:20:18;101244.53;;;10.58;100.00
4836;BME280;66719;51.226;6.902;2023-05-16T08:22:44;101235.78;;;10.60;99.60
4836;BME280;66719;51.226;6.902;2023-05-16T08:25:10;101243.59;;;10.65;100.00
4836;BME280;66719;51.226;6.902;2023-05-16T08:27:37;101235.59;;;10.75;100.00
4836;BME280;66719;51.226;6.902;2023-05-16T08:30:04;101250.28;;;10.90;100.00
4836;BME280;66719;51.226;6.902;2023-05-16T08:32:31;101249.34;;;10.94;100.00
4836;BME280;66719;51.226;6.902;2023-05-16T08:34:58;101247.50;;;11.02;100.00
4836;BME280;66719;51.226;6.902;2023-05-16T08:37:25;101241.41;;;11.05;99.51
4836;BME280;66719;51.226;6.902;2023-05-16T08:39:51;101236.06;;;11.10;100.00
4836;BME280;66719;51.226;6.902;2023-05-16T08:42:18;101242.16;;;11.15;100.00
4836;BME280;66719;51.226;6.902;2023-05-16T08:44:45;101244.56;;;11.30;100.00
4836;BME280;66719;51.226;6.902;2023-05-16T08:47:13;101243.50;;;11.43;98.04
4836;BME280;66719;51.226;6.902;2023-05-16T08:49:42;101230.53;;;11.34;91.21
4836;BME280;66719;51.226;6.902;2023-05-16T08:52:09;101257.69;;;11.27;94.30
4836;BME280;66719;51.226;6.902;2023-05-16T08:54:36;101264.88;;;11.13;98.47
4836;BME280;66719;51.226;6.902;2023-05-16T08:57:04;101250.16;;;11.04;97.54
4836;BME280;66719;51.226;6.902;2023-05-16T08:59:31;101257.09;;;11.07;99.51
4836;BME280;66719;51.226;6.902;2023-05-16T09:01:58;101251.88;;;11.05;98.70
4836;BME280;66719;51.226;6.902;2023-05-16T09:04:25;101258.88;;;11.01;99.50
4836;BME280;66719;51.226;6.902;2023-05-16T09:06:53;101252.75;;;11.02;98.37
4836;BME280;66719;51.226;6.902;2023-05-16T09:09:19;101252.69;;;11.09;96.97
4836;BME280;66719;51.226;6.902;2023-05-16T09:11:46;101251.75;;;11.14;96.69
4836;BME280;66719;51.226;6.902;2023-05-16T09:14:13;101259.63;;;11.11;95.08
4836;BME280;66719;51.226;6.902;2023-05-16T09:16:39;101252.69;;;11.09;92.88
4836;BME280;66719;51.226;6.902;2023-05-16T09:19:06;101246.38;;;11.25;96.39
4836;BME280;66719;51.226;6.902;2023-05-16T09:21:33;101245.38;;;11.33;94.72
4836;BME280;66719;51.226;6.902;2023-05-16T09:24:08;101249.81;;;11.28;92.22
4836;BME280;66719;51.226;6.902;2023-05-16T09:26:36;101259.47;;;11.25;94.31
4836;BME280;66719;51.226;6.902;2023-05-16T09:29:10;101254.41;;;11.10;93.20
4836;BME280;66719;51.226;6.902;2023-05-16T09:31:38;101248.34;;;11.08;97.24
4836;BME280;66719;51.226;6.902;2023-05-16T09:34:08;101252.72;;;11.07;100.00
4836;BME280;66719;51.226;6.902;2023-05-16T09:36:36;101254.41;;;11.10;95.76
4836;BME280;66719;51.226;6.902;2023-05-16T09:39:06;101244.75;;;11.15;95.14
4836;BME280;66719;51.226;6.902;2023-05-16T09:41:33;101250.78;;;11.23;89.77
4836;BME280;66719;51.226;6.902;2023-05-16T09:44:03;101246.19;;;11.40;88.94
4836;BME280;66719;51.226;6.902;2023-05-16T09:46:33;101242.59;;;11.47;88.60
4836;BME280;66719;51.226;6.902;2023-05-16T09:49:00;101245.09;;;11.56;84.01
4836;BME280;66719;51.226;6.902;2023-05-16T09:51:27;101241.63;;;11.53;85.04
4836;BME280;66719;51.226;6.902;2023-05-16T09:53:57;101260.81;;;11.56;86.18
4836;BME280;66719;51.226;6.902;2023-05-16T09:56:24;101237.94;;;11.66;86.82
4836;BME280;66719;51.226;6.902;2023-05-16T09:58:51;101238.75;;;11.70;86.17
4836;BME280;66719;51.226;6.902;2023-05-16T10:01:18;101244.97;;;11.63;86.23
4836;BME280;66719;51.226;6.902;2023-05-16T10:03:44;101247.56;;;11.66;87.33
4836;BME280;66719;51.226;6.902;2023-05-16T10:06:12;101251.00;;;11.69;83.49
4836;BME280;66719;51.226;6.902;2023-05-16T10:08:41;101236.97;;;11.73;80.39
4836;BME280;66719;51.226;6.902;2023-05-16T10:11:08;101236.84;;;11.84;80.76
4836;BME280;66719;51.226;6.902;2023-05-16T10:13:36;101233.19;;;11.94;78.95
4836;BME280;66719;51.226;6.902;2023-05-16T10:16:10;101232.13;;;12.04;79.22
4836;BME280;66719;51.226;6.902;2023-05-16T10:18:39;101238.91;;;12.19;79.97
4836;BME280;66719;51.226;6.902;2023-05-16T10:21:13;101240.50;;;12.28;78.11
4836;BME280;66719;51.226;6.902;2023-05-16T10:23:41;101237.91;;;12.26;77.46
4836;BME280;66719;51.226;6.902;2023-05-16T10:26:08;101252.88;;;12.20;79.66
4836;BME280;66719;51.226;6.902;2023-05-16T10:28:36;101244.31;;;12.08;79.86
4836;BME280;66719;51.226;6.902;2023-05-16T10:31:04;101249.59;;;12.08;80.58
4836;BME280;66719;51.226;6.902;2023-05-16T10:33:31;101249.50;;;12.11;81.12
4836;BME280;66719;51.226;6.902;2023-05-16T10:35:57;101248.72;;;12.06;77.95
4836;BME280;66719;51.226;6.902;2023-05-16T10:38:27;101244.28;;;12.11;82.54
4836;BME280;66719;51.226;6.902;2023-05-16T10:40:54;101240.75;;;12.12;79.70
4836;BME280;66719;51.226;6.902;2023-05-16T10:43:23;101232.53;;;12.32;81.19
4836;BME280;66719;51.226;6.902;2023-05-16T10:46:02;101228.75;;;12.47;78.96
4836;BME280;66719;51.226;6.902;2023-05-16T10:48:32;101228.91;;;12.39;76.86
4836;BME280;66719;51.226;6.902;2023-05-16T10:50:59;101225.53;;;12.31;81.24
4836;BME280;66719;51.226;6.902;2023-05-16T10:53:33;101235.34;;;12.22;83.36
4836;BME280;66719;51.226;6.902;2023-05-16T11:01:15;101254.22;;;11.91;83.62
4836;BME280;66719;51.226;6.902;2023-05-16T11:12:02;101250.53;;;12.03;95.05
4836;BME280;66719;51.226;6.902;2023-05-16T11:16:59;101263.50;;;12.12;93.06
4836;BME280;66719;51.226;6.902;2023-05-16T11:19:32;101260.19;;;12.01;91.41
4836;BME280;66719;51.226;6.902;2023-05-16T11:22:24;101255.09;;;11.90;90.96
4836;BME280;66719;51.226;6.902;2023-05-16T11:24:59;101259.47;;;11.89;90.50
4836;BME280;66719;51.226;6.902;2023-05-16T11:29:57;101252.09;;;12.14;87.27
4836;BME280;66719;51.226;6.902;2023-05-16T11:32:28;101248.72;;;12.08;80.75
4836;BME280;66719;51.226;6.902;2023-05-16T11:34:56;101229.31;;;12.16;83.31
4836;BME280;66719;51.226;6.902;2023-05-16T11:37:23;101236.88;;;12.35;86.02
4836;BME280;66719;51.226;6.902;2023-05-16T11:39:50;101232.94;;;12.57;86.48
4836;BME280;66719;51.226;6.902;2023-05-16T11:42:17;101240.53;;;12.74;83.48
4836;BME280;66719;51.226;6.902;2023-05-16T11:44:44;101243.00;;;12.82;85.62
4836;BME280;66719;51.226;6.902;2023-05-16T11:47:10;101237.56;;;12.91;82.00
4836;BME280;66719;51.226;6.902;2023-05-16T11:49:38;101229.34;;;13.08;80.94
4836;BME280;66719;51.226;6.902;2023-05-16T11:52:06;101230.66;;;13.30;81.65
4836;BME280;66719;51.226;6.902;2023-05-16T11:54:35;101237.84;;;13.20;78.86
4836;BME280;66719;51.226;6.902;2023-05-16T11:57:01;101241.44;;;13.16;79.28
4836;BME280;66719;51.226;6.902;2023-05-16T11:59:28;101237.44;;;13.40;79.47
4836;BME280;66719;51.226;6.902;2023-05-16T12:01:55;101243.88;;;13.27;78.20
4836;BME280;66719;51.226;6.902;2023-05-16T12:04:21;101244.25;;;13.07;78.58
4836;BME280;66719;51.226;6.902;2023-05-16T12:06:57;101253.38;;;12.89;75.91
4836;BME280;66719;51.226;6.902;2023-05-16T12:09:26;101255.50;;;12.70;76.54
4836;BME280;66719;51.226;6.902;2023-05-16T12:11:52;101257.34;;;12.64;78.45
4836;BME280;66719;51.226;6.902;2023-05-16T12:14:19;101274.94;;;12.60;80.17
4836;BME280;66719;51.226;6.902;2023-05-16T12:16:46;101265.47;;;12.52;81.75
4836;BME280;66719;51.226;6.902;2023-05-16T12:19:15;101269.88;;;12.51;83.81
4836;BME280;66719;51.226;6.902;2023-05-16T12:21:41;101258.25;;;12.63;87.19
4836;BME280;66719;51.226;6.902;2023-05-16T12:24:09;101266.13;;;12.63;90.47
4836;BME280;66719;51.226;6.902;2023-05-16T12:26:39;101268.06;;;12.53;92.27
4836;BME280;66719;51.226;6.902;2023-05-16T12:29:06;101266.53;;;12.40;93.57
4836;BME280;66719;51.226;6.902;2023-05-16T12:31:38;101276.38;;;12.77;94.47
4836;BME280;66719;51.226;6.902;2023-05-16T12:34:17;101267.91;;;13.91;87.67
4836;BME280;66719;51.226;6.902;2023-05-16T12:36:44;101251.63;;;14.45;84.95
4836;BME280;66719;51.226;6.902;2023-05-16T12:39:11;101258.97;;;15.30;83.07
4836;BME280;66719;51.226;6.902;2023-05-16T12:41:40;101240.59;;;15.56;77.82
4836;BME280;66719;51.226;6.902;2023-05-16T12:46:46;101249.59;;;16.05;68.55
4836;BME280;66719;51.226;6.902;2023-05-16T12:49:20;101244.88;;;16.15;67.53
4836;BME280;66719;51.226;6.902;2023-05-16T12:51:52;101243.50;;;16.03;66.38
4836;BME280;66719;51.226;6.902;2023-05-16T12:54:19;101242.41;;;16.10;66.74
4836;BME280;66719;51.226;6.902;2023-05-16T12:56:48;101239.59;;;16.15;64.23
4836;BME280;66719;51.226;6.902;2023-05-16T12:59:14;101239.44;;;16.46;66.82
4836;BME280;66719;51.226;6.902;2023-05-16T13:01:41;101236.88;;;16.69;63.95
4836;BME280;66719;51.226;6.902;2023-05-16T13:04:08;101237.06;;;17.11;65.24
4836;BME280;66719;51.226;6.902;2023-05-16T13:06:39;101231.94;;;16.83;59.28
4836;BME280;66719;51.226;6.902;2023-05-16T13:09:24;101223.31;;;17.02;58.55
4836;BME280;66719;51.226;6.902;2023-05-16T13:11:56;101236.94;;;16.41;55.21
4836;BME280;66719;51.226;6.902;2023-05-16T13:14:23;101219.13;;;16.21;53.47
4836;BME280;66719;51.226;6.902;2023-05-16T13:16:49;101226.38;;;16.66;54.89
4836;BME280;66719;51.226;6.902;2023-05-16T13:19:16;101229.81;;;16.93;51.73
4836;BME280;66719;51.226;6.902;2023-05-16T13:21:43;101229.28;;;16.58;48.24
4836;BME280;66719;51.226;6.902;2023-05-16T13:24:09;101224.53;;;16.70;49.85
4836;BME280;66719;51.226;6.902;2023-05-16T13:26:36;101236.16;;;16.89;49.67
4836;BME280;66719;51.226;6.902;2023-05-16T13:29:02;101228.34;;;16.86;50.57
4836;BME280;66719;51.226;6.902;2023-05-16T13:31:29;101227.50;;;16.84;50.98
4836;BME280;66719;51.226;6.902;2023-05-16T13:33:55;101224.84;;;17.32;53.13